sensor_id;sensor_type;location;lat;lon;timestamp;P1;durP1;ratioP1;P2;durP2;ratioP2
7971;SDS011;4031;49.758;6.120;2022-10-31T00:02:22;22.00;;;10.23;;
7971;SDS011;4031;49.758;6.120;2022-10-31T00:04:48;19.67;;;10.77;;
7971;SDS011;4031;49.758;6.120;2022-10-31T00:07:13;15.63;;;10.50;;
7971;SDS011;4031;49.758;6.120;2022-10-31T00:09:39;20.17;;;11.00;;
7971;SDS011;4031;49.758;6.120;2022-10-31T00:12:05;17.90;;;9.87;;
7971;SDS011;4031;49.758;6.120;2022-10-31T00:14:31;20.30;;;10.27;;
7971;SDS011;4031;49.758;6.120;2022-10-31T00:16:56;22.40;;;11.93;;
7971;SDS011;4031;49.758;6.120;2022-10-31T00:19:22;15.90;;;10.67;;
7971;SDS011;4031;49.758;6.120;2022-10-31T00:21:48;18.33;;;9.57;;
7971;SDS011;4031;49.758;6.120;2022-10-31T00:24:16;17.80;;;9.67;;
7971;SDS011;4031;49.758;6.120;2022-10-31T00:26:42;21.10;;;12.03;;
7971;SDS011;4031;49.758;6.120;2022-10-31T00:29:08;22.57;;;13.30;;
7971;SDS011;4031;49.758;6.120;2022-10-31T00:31:35;26.43;;;11.03;;
7971;SDS011;4031;49.758;6.120;2022-10-31T00:34:00;18.93;;;11.27;;
7971;SDS011;4031;49.758;6.120;2022-10-31T00:36:27;24.47;;;12.60;;
7971;SDS011;4031;49.758;6.120;2022-10-31T00:38:53;17.43;;;10.30;;
7971;SDS011;4031;49.758;6.120;2022-10-31T00:41:19;21.93;;;12.20;;
7971;SDS011;4031;49.758;6.120;2022-10-31T00:43:45;22.27;;;11.70;;
7971;SDS011;4031;49.758;6.120;2022-10-31T00:46:12;19.43;;;11.63;;
7971;SDS011;4031;49.758;6.120;2022-10-31T00:48:38;19.47;;;10.73;;
7971;SDS011;4031;49.758;6.120;2022-10-31T00:51:04;20.17;;;15.43;;
7971;SDS011;4031;49.758;6.120;2022-10-31T00:53:30;29.87;;;24.30;;
7971;SDS011;4031;49.758;6.120;2022-10-31T00:55:56;31.37;;;21.63;;
7971;SDS011;4031;49.758;6.120;2022-10-31T00:58:21;21.63;;;16.20;;
7971;SDS011;4031;49.758;6.120;2022-10-31T01:00:47;27.00;;;13.60;;
7971;SDS011;4031;49.758;6.120;2022-10-31T01:03:20;22.53;;;12.00;;
7971;SDS011;4031;49.758;6.120;2022-10-31T01:08:30;22.80;;;13.23;;
7971;SDS011;4031;49.758;6.120;2022-10-31T01:11:16;19.27;;;11.07;;
7971;SDS011;4031;49.758;6.120;2022-10-31T01:13:45;20.43;;;12.97;;
7971;SDS011;4031;49.758;6.120;2022-10-31T01:16:12;21.97;;;11.10;;
7971;SDS011;4031;49.758;6.120;2022-10-31T01:18:41;21.23;;;12.13;;
7971;SDS011;4031;49.758;6.120;2022-10-31T01:21:08;23.43;;;11.67;;
7971;SDS011;4031;49.758;6.120;2022-10-31T01:23:38;18.20;;;11.57;;
7971;SDS011;4031;49.758;6.120;2022-10-31T01:26:06;24.73;;;12.50;;
7971;SDS011;4031;49.758;6.120;2022-10-31T01:28:45;25.30;;;12.30;;
7971;SDS011;4031;49.758;6.120;2022-10-31T01:31:20;19.10;;;10.50;;
7971;SDS011;4031;49.758;6.120;2022-10-31T01:33:49;17.37;;;11.00;;
7971;SDS011;4031;49.758;6.120;2022-10-31T01:36:19;16.30;;;10.33;;
7971;SDS011;4031;49.758;6.120;2022-10-31T01:38:49;16.93;;;9.93;;
7971;SDS011;4031;49.758;6.120;2022-10-31T01:41:18;18.20;;;11.67;;
7971;SDS011;4031;49.758;6.120;2022-10-31T01:43:49;21.27;;;10.87;;
7971;SDS011;4031;49.758;6.120;2022-10-31T01:46:20;24.73;;;11.63;;
7971;SDS011;4031;49.758;6.120;2022-10-31T01:48:50;18.93;;;11.50;;
7971;SDS011;4031;49.758;6.120;2022-10-31T01:51:18;18.43;;;13.93;;
7971;SDS011;4031;49.758;6.120;2022-10-31T01:53:49;19.97;;;11.03;;
7971;SDS011;4031;49.758;6.120;2022-10-31T01:56:17;16.50;;;10.10;;
7971;SDS011;4031;49.758;6.120;2022-10-31T01:58:44;18.47;;;10.73;;
7971;SDS011;4031;49.758;6.120;2022-10-31T02:01:11;19.93;;;11.50;;
7971;SDS011;4031;49.758;6.120;2022-10-31T02:03:39;20.60;;;10.57;;
7971;SDS011;4031;49.758;6.120;2022-10-31T02:06:06;16.60;;;10.63;;
7971;SDS011;4031;49.758;6.120;2022-10-31T02:08:42;18.10;;;10.63;;
7971;SDS011;4031;49.758;6.120;2022-10-31T02:11:08;21.27;;;11.70;;
7971;SDS011;4031;49.758;6.120;2022-10-31T02:13:36;18.70;;;10.87;;
7971;SDS011;4031;49.758;6.120;2022-10-31T02:16:03;26.23;;;11.13;;
7971;SDS011;4031;49.758;6.120;2022-10-31T02:18:29;16.77;;;10.70;;
7971;SDS011;4031;49.758;6.120;2022-10-31T02:24:55;18.43;;;10.80;;
7971;SDS011;4031;49.758;6.120;2022-10-31T02:27:26;16.90;;;10.20;;
7971;SDS011;4031;49.758;6.120;2022-10-31T02:30:14;17.90;;;10.00;;
7971;SDS011;4031;49.758;6.120;2022-10-31T02:35:53;23.87;;;11.60;;
7971;SDS011;4031;49.758;6.120;2022-10-31T02:38:51;19.13;;;11.27;;
7971;SDS011;4031;49.758;6.120;2022-10-31T02:41:46;15.80;;;9.60;;
7971;SDS011;4031;49.758;6.120;2022-10-31T02:44:37;17.23;;;11.00;;
7971;SDS011;4031;49.758;6.120;2022-10-31T02:47:32;16.17;;;10.00;;
7971;SDS011;4031;49.758;6.120;2022-10-31T02:52:31;23.87;;;9.80;;
7971;SDS011;4031;49.758;6.120;2022-10-31T02:55:09;17.90;;;10.37;;
7971;SDS011;4031;49.758;6.120;2022-10-31T02:57:49;16.50;;;9.80;;
7971;SDS011;4031;49.758;6.120;2022-10-31T03:00:19;20.47;;;10.17;;
7971;SDS011;4031;49.758;6.120;2022-10-31T03:03:03;16.07;;;11.27;;
7971;SDS011;4031;49.758;6.120;2022-10-31T03:08:39;17.97;;;10.83;;
7971;SDS011;4031;49.758;6.120;2022-10-31T03:11:16;15.80;;;9.83;;
7971;SDS011;4031;49.758;6.120;2022-10-31T03:19:19;19.23;;;10.10;;
7971;SDS011;4031;49.758;6.120;2022-10-31T03:24:21;17.77;;;9.50;;
7971;SDS011;4031;49.758;6.120;2022-10-31T03:26:54;14.80;;;9.13;;
7971;SDS011;4031;49.758;6.120;2022-10-31T03:29:24;21.23;;;8.80;;
7971;SDS011;4031;49.758;6.120;2022-10-31T03:32:00;25.20;;;10.47;;
7971;SDS011;4031;49.758;6.120;2022-10-31T03:34:45;20.83;;;10.30;;
7971;SDS011;4031;49.758;6.120;2022-10-31T03:37:13;20.03;;;9.30;;
7971;SDS011;4031;49.758;6.120;2022-10-31T03:39:43;21.67;;;10.20;;
7971;SDS011;4031;49.758;6.120;2022-10-31T03:42:11;14.63;;;9.77;;
7971;SDS011;4031;49.758;6.120;2022-10-31T03:44:46;24.40;;;9.93;;
7971;SDS011;4031;49.758;6.120;2022-10-31T03:47:38;16.20;;;9.17;;
7971;SDS011;4031;49.758;6.120;2022-10-31T03:50:05;17.23;;;11.37;;
7971;SDS011;4031;49.758;6.120;2022-10-31T03:52:49;21.13;;;9.23;;
7971;SDS011;4031;49.758;6.120;2022-10-31T03:55:30;24.80;;;10.43;;
7971;SDS011;4031;49.758;6.120;2022-10-31T03:58:21;18.30;;;9.13;;
7971;SDS011;4031;49.758;6.120;2022-10-31T04:00:54;18.40;;;10.50;;
7971;SDS011;4031;49.758;6.120;2022-10-31T04:03:23;17.80;;;10.57;;
7971;SDS011;4031;49.758;6.120;2022-10-31T04:05:54;20.80;;;11.60;;
7971;SDS011;4031;49.758;6.120;2022-10-31T04:08:24;15.23;;;10.10;;
7971;SDS011;4031;49.758;6.120;2022-10-31T04:10:52;20.43;;;9.40;;
7971;SDS011;4031;49.758;6.120;2022-10-31T04:13:22;17.00;;;10.40;;
7971;SDS011;4031;49.758;6.120;2022-10-31T04:15:53;22.50;;;11.20;;
7971;SDS011;4031;49.758;6.120;2022-10-31T04:18:24;21.60;;;12.20;;
7971;SDS011;4031;49.758;6.120;2022-10-31T04:20:58;27.97;;;11.00;;
7971;SDS011;4031;49.758;6.120;2022-10-31T04:23:30;22.30;;;12.07;;
7971;SDS011;4031;49.758;6.120;2022-10-31T04:25:56;21.80;;;11.43;;
7971;SDS011;4031;49.758;6.120;2022-10-31T04:28:22;24.33;;;12.40;;
7971;SDS011;4031;49.758;6.120;2022-10-31T04:30:48;21.63;;;11.90;;
7971;SDS011;4031;49.758;6.120;2022-10-31T04:33:14;24.67;;;12.63;;
7971;SDS011;4031;49.758;6.120;2022-10-31T04:35:40;22.47;;;12.33;;
7971;SDS011;4031;49.758;6.120;2022-10-31T04:38:06;28.40;;;12.47;;
7971;SDS011;4031;49.758;6.120;2022-10-31T04:40:32;26.70;;;12.80;;
7971;SDS011;4031;49.758;6.120;2022-10-31T04:42:57;27.90;;;12.73;;
7971;SDS011;4031;49.758;6.120;2022-10-31T04:45:23;19.50;;;11.10;;
7971;SDS011;4031;49.758;6.120;2022-10-31T04:47:49;28.13;;;13.00;;
7971;SDS011;4031;49.758;6.120;2022-10-31T04:50:15;27.87;;;14.23;;
7971;SDS011;4031;49.758;6.120;2022-10-31T04:52:41;21.73;;;11.57;;
7971;SDS011;4031;49.758;6.120;2022-10-31T04:55:09;22.43;;;11.40;;
7971;SDS011;4031;49.758;6.120;2022-10-31T04:57:40;19.10;;;11.73;;
7971;SDS011;4031;49.758;6.120;2022-10-31T05:00:07;21.60;;;10.73;;
7971;SDS011;4031;49.758;6.120;2022-10-31T05:02:41;22.17;;;10.53;;
7971;SDS011;4031;49.758;6.120;2022-10-31T05:05:16;22.50;;;12.60;;
7971;SDS011;4031;49.758;6.120;2022-10-31T05:07:44;25.43;;;10.73;;
7971;SDS011;4031;49.758;6.120;2022-10-31T05:10:12;20.33;;;11.50;;
7971;SDS011;4031;49.758;6.120;2022-10-31T05:15:17;20.33;;;9.93;;
7971;SDS011;4031;49.758;6.120;2022-10-31T05:17:44;24.20;;;10.50;;
7971;SDS011;4031;49.758;6.120;2022-10-31T05:20:11;20.30;;;10.47;;
7971;SDS011;4031;49.758;6.120;2022-10-31T05:22:42;17.87;;;9.23;;
7971;SDS011;4031;49.758;6.120;2022-10-31T05:25:09;20.80;;;10.80;;
7971;SDS011;4031;49.758;6.120;2022-10-31T05:27:38;22.20;;;11.37;;
7971;SDS011;4031;49.758;6.120;2022-10-31T05:30:05;24.37;;;10.77;;
7971;SDS011;4031;49.758;6.120;2022-10-31T05:32:38;23.90;;;9.93;;
7971;SDS011;4031;49.758;6.120;2022-10-31T05:35:06;14.40;;;9.10;;
7971;SDS011;4031;49.758;6.120;2022-10-31T05:37:33;22.73;;;10.00;;
7971;SDS011;4031;49.758;6.120;2022-10-31T05:40:03;15.87;;;9.23;;
7971;SDS011;4031;49.758;6.120;2022-10-31T05:42:33;16.43;;;9.37;;
7971;SDS011;4031;49.758;6.120;2022-10-31T05:44:59;19.97;;;10.47;;
7971;SDS011;4031;49.758;6.120;2022-10-31T05:47:25;26.63;;;9.67;;
7971;SDS011;4031;49.758;6.120;2022-10-31T05:49:50;17.60;;;10.20;;
7971;SDS011;4031;49.758;6.120;2022-10-31T05:52:16;18.10;;;9.57;;
7971;SDS011;4031;49.758;6.120;2022-10-31T05:54:42;21.27;;;10.43;;
7971;SDS011;4031;49.758;6.120;2022-10-31T05:57:08;21.87;;;10.70;;
7971;SDS011;4031;49.758;6.120;2022-10-31T05:59:34;19.70;;;9.57;;
7971;SDS011;4031;49.758;6.120;2022-10-31T06:02:00;18.93;;;8.40;;
7971;SDS011;4031;49.758;6.120;2022-10-31T06:04:26;17.30;;;9.47;;
7971;SDS011;4031;49.758;6.120;2022-10-31T06:06:52;22.30;;;10.47;;
7971;SDS011;4031;49.758;6.120;2022-10-31T06:09:17;23.60;;;11.17;;
7971;SDS011;4031;49.758;6.120;2022-10-31T06:11:44;23.70;;;10.77;;
7971;SDS011;4031;49.758;6.120;2022-10-31T06:14:10;21.73;;;10.13;;
7971;SDS011;4031;49.758;6.120;2022-10-31T06:16:35;17.70;;;10.13;;
7971;SDS011;4031;49.758;6.120;2022-10-31T06:19:01;21.60;;;11.10;;
7971;SDS011;4031;49.758;6.120;2022-10-31T06:21:27;22.57;;;12.00;;
7971;SDS011;4031;49.758;6.120;2022-10-31T06:23:53;21.40;;;10.70;;
7971;SDS011;4031;49.758;6.120;2022-10-31T06:26:18;29.73;;;11.73;;
7971;SDS011;4031;49.758;6.120;2022-10-31T06:28:44;28.80;;;12.80;;
7971;SDS011;4031;49.758;6.120;2022-10-31T06:31:10;22.30;;;12.17;;
7971;SDS011;4031;49.758;6.120;2022-10-31T06:33:35;30.97;;;11.80;;
7971;SDS011;4031;49.758;6.120;2022-10-31T06:36:01;23.77;;;12.00;;
7971;SDS011;4031;49.758;6.120;2022-10-31T06:38:27;20.47;;;10.50;;
7971;SDS011;4031;49.758;6.120;2022-10-31T06:40:53;24.13;;;10.77;;
7971;SDS011;4031;49.758;6.120;2022-10-31T06:43:20;19.07;;;11.87;;
7971;SDS011;4031;49.758;6.120;2022-10-31T06:45:46;26.57;;;11.20;;
7971;SDS011;4031;49.758;6.120;2022-10-31T06:48:12;21.33;;;11.67;;
7971;SDS011;4031;49.758;6.120;2022-10-31T06:50:38;20.93;;;11.20;;
7971;SDS011;4031;49.758;6.120;2022-10-31T06:53:04;21.60;;;10.40;;
7971;SDS011;4031;49.758;6.120;2022-10-31T06:55:29;18.63;;;10.10;;
7971;SDS011;4031;49.758;6.120;2022-10-31T06:57:56;22.67;;;10.70;;
7971;SDS011;4031;49.758;6.120;2022-10-31T07:00:25;18.17;;;10.03;;
7971;SDS011;4031;49.758;6.120;2022-10-31T07:02:58;18.43;;;11.47;;
7971;SDS011;4031;49.758;6.120;2022-10-31T07:05:29;21.83;;;11.30;;
7971;SDS011;4031;49.758;6.120;2022-10-31T07:07:57;21.37;;;11.40;;
7971;SDS011;4031;49.758;6.120;2022-10-31T07:10:25;21.17;;;10.40;;
7971;SDS011;4031;49.758;6.120;2022-10-31T07:12:54;24.07;;;11.20;;
7971;SDS011;4031;49.758;6.120;2022-10-31T07:15:25;21.33;;;10.77;;
7971;SDS011;4031;49.758;6.120;2022-10-31T07:17:52;23.23;;;10.57;;
7971;SDS011;4031;49.758;6.120;2022-10-31T07:20:18;22.37;;;10.70;;
7971;SDS011;4031;49.758;6.120;2022-10-31T07:22:44;24.80;;;11.80;;
7971;SDS011;4031;49.758;6.120;2022-10-31T07:25:11;20.07;;;11.37;;
7971;SDS011;4031;49.758;6.120;2022-10-31T07:27:37;18.57;;;10.80;;
7971;SDS011;4031;49.758;6.120;2022-10-31T07:30:05;22.70;;;11.67;;
7971;SDS011;4031;49.758;6.120;2022-10-31T07:32:39;21.90;;;10.70;;
7971;SDS011;4031;49.758;6.120;2022-10-31T07:35:11;20.00;;;10.33;;
7971;SDS011;4031;49.758;6.120;2022-10-31T07:37:39;23.77;;;12.13;;
7971;SDS011;4031;49.758;6.120;2022-10-31T07:40:06;22.63;;;10.77;;
7971;SDS011;4031;49.758;6.120;2022-10-31T07:42:36;16.50;;;10.10;;
7971;SDS011;4031;49.758;6.120;2022-10-31T07:45:04;24.40;;;11.80;;
7971;SDS011;4031;49.758;6.120;2022-10-31T07:47:39;20.20;;;11.80;;
7971;SDS011;4031;49.758;6.120;2022-10-31T07:50:06;21.83;;;13.00;;
7971;SDS011;4031;49.758;6.120;2022-10-31T07:52:34;23.63;;;14.03;;
7971;SDS011;4031;49.758;6.120;2022-10-31T07:55:00;27.27;;;17.30;;
7971;SDS011;4031;49.758;6.120;2022-10-31T07:57:25;29.87;;;14.77;;
7971;SDS011;4031;49.758;6.120;2022-10-31T07:59:51;27.17;;;12.43;;
7971;SDS011;4031;49.758;6.120;2022-10-31T08:02:17;20.70;;;12.37;;
7971;SDS011;4031;49.758;6.120;2022-10-31T08:04:43;18.20;;;10.60;;
7971;SDS011;4031;49.758;6.120;2022-10-31T08:07:09;17.53;;;10.50;;
7971;SDS011;4031;49.758;6.120;2022-10-31T08:09:34;14.70;;;10.00;;
7971;SDS011;4031;49.758;6.120;2022-10-31T08:12:00;15.87;;;9.70;;
7971;SDS011;4031;49.758;6.120;2022-10-31T08:14:26;21.97;;;10.03;;
7971;SDS011;4031;49.758;6.120;2022-10-31T08:16:53;13.07;;;9.60;;
7971;SDS011;4031;49.758;6.120;2022-10-31T08:19:19;14.67;;;9.67;;
7971;SDS011;4031;49.758;6.120;2022-10-31T08:21:45;14.40;;;7.50;;
7971;SDS011;4031;49.758;6.120;2022-10-31T08:24:11;18.27;;;10.00;;
7971;SDS011;4031;49.758;6.120;2022-10-31T08:26:37;11.53;;;8.67;;
7971;SDS011;4031;49.758;6.120;2022-10-31T08:29:02;12.50;;;9.80;;
7971;SDS011;4031;49.758;6.120;2022-10-31T08:31:28;14.30;;;9.80;;
7971;SDS011;4031;49.758;6.120;2022-10-31T08:33:54;18.27;;;9.70;;
7971;SDS011;4031;49.758;6.120;2022-10-31T08:36:20;19.90;;;11.27;;
7971;SDS011;4031;49.758;6.120;2022-10-31T08:38:46;14.47;;;10.10;;
7971;SDS011;4031;49.758;6.120;2022-10-31T08:41:13;17.23;;;10.20;;
7971;SDS011;4031;49.758;6.120;2022-10-31T08:43:39;16.97;;;8.90;;
7971;SDS011;4031;49.758;6.120;2022-10-31T08:46:05;12.80;;;8.50;;
7971;SDS011;4031;49.758;6.120;2022-10-31T08:48:30;11.53;;;7.53;;
7971;SDS011;4031;49.758;6.120;2022-10-31T08:50:57;10.87;;;7.87;;
7971;SDS011;4031;49.758;6.120;2022-10-31T08:53:24;11.93;;;7.70;;
7971;SDS011;4031;49.758;6.120;2022-10-31T08:55:53;14.53;;;7.93;;
7971;SDS011;4031;49.758;6.120;2022-10-31T08:58:21;11.90;;;8.67;;
7971;SDS011;4031;49.758;6.120;2022-10-31T09:00:49;10.07;;;7.27;;
7971;SDS011;4031;49.758;6.120;2022-10-31T09:03:19;9.73;;;7.20;;
7971;SDS011;4031;49.758;6.120;2022-10-31T09:05:50;7.43;;;6.63;;
7971;SDS011;4031;49.758;6.120;2022-10-31T09:08:20;6.97;;;6.20;;
7971;SDS011;4031;49.758;6.120;2022-10-31T09:10:45;7.67;;;5.47;;
7971;SDS011;4031;49.758;6.120;2022-10-31T09:13:12;9.83;;;4.60;;
7971;SDS011;4031;49.758;6.120;2022-10-31T09:15:43;12.47;;;6.30;;
7971;SDS011;4031;49.758;6.120;2022-10-31T09:18:11;11.07;;;6.20;;
7971;SDS011;4031;49.758;6.120;2022-10-31T09:20:40;6.43;;;5.63;;
7971;SDS011;4031;49.758;6.120;2022-10-31T09:23:08;11.80;;;5.50;;
7971;SDS011;4031;49.758;6.120;2022-10-31T09:25:38;9.97;;;6.17;;
7971;SDS011;4031;49.758;6.120;2022-10-31T09:28:05;11.60;;;6.83;;
7971;SDS011;4031;49.758;6.120;2022-10-31T09:30:33;11.43;;;6.63;;
7971;SDS011;4031;49.758;6.120;2022-10-31T09:33:04;12.00;;;7.03;;
7971;SDS011;4031;49.758;6.120;2022-10-31T09:35:34;14.67;;;8.07;;
7971;SDS011;4031;49.758;6.120;2022-10-31T09:38:01;11.47;;;7.13;;
7971;SDS011;4031;49.758;6.120;2022-10-31T09:43:14;7.30;;;5.60;;
7971;SDS011;4031;49.758;6.120;2022-10-31T09:51:51;9.70;;;5.13;;
7971;SDS011;4031;49.758;6.120;2022-10-31T09:54:35;5.70;;;4.80;;
7971;SDS011;4031;49.758;6.120;2022-10-31T09:57:19;7.10;;;5.10;;
7971;SDS011;4031;49.758;6.120;2022-10-31T09:59:55;7.40;;;5.40;;
7971;SDS011;4031;49.758;6.120;2022-10-31T10:02:28;6.80;;;5.57;;
7971;SDS011;4031;49.758;6.120;2022-10-31T10:05:18;7.07;;;6.37;;
7971;SDS011;4031;49.758;6.120;2022-10-31T10:13:18;11.63;;;5.30;;
7971;SDS011;4031;49.758;6.120;2022-10-31T10:16:27;8.53;;;5.63;;
7971;SDS011;4031;49.758;6.120;2022-10-31T10:21:26;10.70;;;5.20;;
7971;SDS011;4031;49.758;6.120;2022-10-31T10:30:28;7.30;;;5.03;;
7971;SDS011;4031;49.758;6.120;2022-10-31T10:33:19;7.10;;;5.00;;
7971;SDS011;4031;49.758;6.120;2022-10-31T10:36:06;8.03;;;5.77;;
7971;SDS011;4031;49.758;6.120;2022-10-31T10:41:30;6.50;;;5.43;;
7971;SDS011;4031;49.758;6.120;2022-10-31T10:43:58;8.87;;;5.50;;
7971;SDS011;4031;49.758;6.120;2022-10-31T10:46:40;6.00;;;5.27;;
7971;SDS011;4031;49.758;6.120;2022-10-31T11:00:20;6.83;;;5.13;;
7971;SDS011;4031;49.758;6.120;2022-10-31T11:03:05;10.10;;;4.97;;
7971;SDS011;4031;49.758;6.120;2022-10-31T11:05:50;6.60;;;5.90;;
7971;SDS011;4031;49.758;6.120;2022-10-31T11:11:00;7.77;;;4.67;;
7971;SDS011;4031;49.758;6.120;2022-10-31T11:13:29;6.90;;;5.30;;
7971;SDS011;4031;49.758;6.120;2022-10-31T11:15:59;8.70;;;4.90;;
7971;SDS011;4031;49.758;6.120;2022-10-31T11:18:38;7.33;;;5.30;;
7971;SDS011;4031;49.758;6.120;2022-10-31T11:21:19;10.03;;;4.90;;
7971;SDS011;4031;49.758;6.120;2022-10-31T11:23:49;9.00;;;4.87;;
7971;SDS011;4031;49.758;6.120;2022-10-31T11:26:18;5.60;;;4.87;;
7971;SDS011;4031;49.758;6.120;2022-10-31T11:28:55;10.33;;;4.67;;
7971;SDS011;4031;49.758;6.120;2022-10-31T11:31:22;10.53;;;5.10;;
7971;SDS011;4031;49.758;6.120;2022-10-31T11:33:51;8.33;;;5.13;;
7971;SDS011;4031;49.758;6.120;2022-10-31T11:36:29;8.10;;;4.80;;
7971;SDS011;4031;49.758;6.120;2022-10-31T11:38:59;7.60;;;5.00;;
7971;SDS011;4031;49.758;6.120;2022-10-31T11:41:30;6.23;;;4.93;;
7971;SDS011;4031;49.758;6.120;2022-10-31T11:46:40;6.13;;;5.50;;
7971;SDS011;4031;49.758;6.120;2022-10-31T11:49:15;6.73;;;4.53;;
7971;SDS011;4031;49.758;6.120;2022-10-31T11:51:51;8.50;;;5.00;;
7971;SDS011;4031;49.758;6.120;2022-10-31T11:54:22;8.87;;;5.77;;
7971;SDS011;4031;49.758;6.120;2022-10-31T11:56:58;8.00;;;4.43;;
7971;SDS011;4031;49.758;6.120;2022-10-31T11:59:26;7.90;;;4.27;;
7971;SDS011;4031;49.758;6.120;2022-10-31T12:01:55;5.23;;;4.73;;
7971;SDS011;4031;49.758;6.120;2022-10-31T12:04:26;9.77;;;4.60;;
7971;SDS011;4031;49.758;6.120;2022-10-31T12:07:06;8.00;;;5.10;;
7971;SDS011;4031;49.758;6.120;2022-10-31T12:09:33;9.43;;;4.80;;
7971;SDS011;4031;49.758;6.120;2022-10-31T12:12:18;8.47;;;5.17;;
7971;SDS011;4031;49.758;6.120;2022-10-31T12:15:42;5.90;;;4.60;;
7971;SDS011;4031;49.758;6.120;2022-10-31T12:18:21;9.17;;;5.43;;
7971;SDS011;4031;49.758;6.120;2022-10-31T12:26:42;5.47;;;4.27;;
7971;SDS011;4031;49.758;6.120;2022-10-31T12:29:42;3.93;;;3.50;;
7971;SDS011;4031;49.758;6.120;2022-10-31T12:32:41;7.50;;;4.53;;
7971;SDS011;4031;49.758;6.120;2022-10-31T12:38:04;6.73;;;4.23;;
7971;SDS011;4031;49.758;6.120;2022-10-31T12:43:56;6.33;;;4.30;;
7971;SDS011;4031;49.758;6.120;2022-10-31T12:49:27;5.43;;;3.70;;
7971;SDS011;4031;49.758;6.120;2022-10-31T12:58:21;4.60;;;3.63;;
7971;SDS011;4031;49.758;6.120;2022-10-31T13:01:03;5.10;;;3.30;;
7971;SDS011;4031;49.758;6.120;2022-10-31T13:06:32;3.37;;;3.07;;
7971;SDS011;4031;49.758;6.120;2022-10-31T13:09:06;4.20;;;3.87;;
7971;SDS011;4031;49.758;6.120;2022-10-31T13:11:43;7.97;;;4.50;;
7971;SDS011;4031;49.758;6.120;2022-10-31T13:17:03;6.63;;;3.87;;
7971;SDS011;4031;49.758;6.120;2022-10-31T13:19:31;4.03;;;3.43;;
7971;SDS011;4031;49.758;6.120;2022-10-31T13:22:21;4.10;;;3.70;;
7971;SDS011;4031;49.758;6.120;2022-10-31T13:24:56;5.13;;;3.27;;
7971;SDS011;4031;49.758;6.120;2022-10-31T13:32:44;5.27;;;2.83;;
7971;SDS011;4031;49.758;6.120;2022-10-31T13:35:33;6.00;;;3.03;;
7971;SDS011;4031;49.758;6.120;2022-10-31T13:46:51;4.77;;;3.33;;
7971;SDS011;4031;49.758;6.120;2022-10-31T13:54:34;4.63;;;2.97;;
7971;SDS011;4031;49.758;6.120;2022-10-31T13:57:14;9.33;;;3.90;;
7971;SDS011;4031;49.758;6.120;2022-10-31T14:02:47;4.30;;;3.10;;
7971;SDS011;4031;49.758;6.120;2022-10-31T14:05:21;6.97;;;2.87;;
7971;SDS011;4031;49.758;6.120;2022-10-31T14:08:00;5.80;;;2.90;;
7971;SDS011;4031;49.758;6.120;2022-10-31T14:13:55;8.17;;;4.20;;
7971;SDS011;4031;49.758;6.120;2022-10-31T14:16:23;6.10;;;4.00;;
7971;SDS011;4031;49.758;6.120;2022-10-31T14:24:13;9.00;;;2.80;;
7971;SDS011;4031;49.758;6.120;2022-10-31T14:26:55;7.40;;;3.00;;
7971;SDS011;4031;49.758;6.120;2022-10-31T14:30:07;4.13;;;2.60;;
7971;SDS011;4031;49.758;6.120;2022-10-31T14:32:40;3.17;;;2.50;;
7971;SDS011;4031;49.758;6.120;2022-10-31T14:35:09;3.30;;;2.30;;
7971;SDS011;4031;49.758;6.120;2022-10-31T14:37:46;5.33;;;2.30;;
7971;SDS011;4031;49.758;6.120;2022-10-31T14:43:47;8.77;;;2.73;;
7971;SDS011;4031;49.758;6.120;2022-10-31T14:46:31;5.10;;;2.80;;
7971;SDS011;4031;49.758;6.120;2022-10-31T14:52:30;5.40;;;2.63;;
7971;SDS011;4031;49.758;6.120;2022-10-31T14:54:56;5.83;;;2.80;;
7971;SDS011;4031;49.758;6.120;2022-10-31T14:57:28;3.00;;;2.00;;
7971;SDS011;4031;49.758;6.120;2022-10-31T15:00:04;3.17;;;2.03;;
7971;SDS011;4031;49.758;6.120;2022-10-31T15:02:39;8.10;;;3.10;;
7971;SDS011;4031;49.758;6.120;2022-10-31T15:05:25;3.50;;;2.17;;
7971;SDS011;4031;49.758;6.120;2022-10-31T15:07:53;8.20;;;2.27;;
7971;SDS011;4031;49.758;6.120;2022-10-31T15:10:23;4.53;;;2.77;;
7971;SDS011;4031;49.758;6.120;2022-10-31T15:13:07;3.43;;;2.00;;
7971;SDS011;4031;49.758;6.120;2022-10-31T15:15:35;19.63;;;4.20;;
7971;SDS011;4031;49.758;6.120;2022-10-31T15:18:03;19.17;;;7.87;;
7971;SDS011;4031;49.758;6.120;2022-10-31T15:20:33;4.40;;;2.67;;
7971;SDS011;4031;49.758;6.120;2022-10-31T15:23:10;3.73;;;2.60;;
7971;SDS011;4031;49.758;6.120;2022-10-31T15:25:48;6.07;;;2.97;;
7971;SDS011;4031;49.758;6.120;2022-10-31T15:28:24;4.37;;;2.73;;
7971;SDS011;4031;49.758;6.120;2022-10-31T15:30:51;3.90;;;3.20;;
7971;SDS011;4031;49.758;6.120;2022-10-31T15:33:22;4.63;;;2.63;;
7971;SDS011;4031;49.758;6.120;2022-10-31T15:35:54;6.50;;;2.77;;
7971;SDS011;4031;49.758;6.120;2022-10-31T15:38:27;4.70;;;3.07;;
7971;SDS011;4031;49.758;6.120;2022-10-31T15:43:27;4.43;;;2.40;;
7971;SDS011;4031;49.758;6.120;2022-10-31T15:46:00;4.27;;;2.53;;
7971;SDS011;4031;49.758;6.120;2022-10-31T15:48:28;4.97;;;2.97;;
7971;SDS011;4031;49.758;6.120;2022-10-31T15:50:57;5.27;;;2.57;;
7971;SDS011;4031;49.758;6.120;2022-10-31T15:53:25;8.60;;;2.83;;
7971;SDS011;4031;49.758;6.120;2022-10-31T15:56:00;6.50;;;3.13;;
7971;SDS011;4031;49.758;6.120;2022-10-31T15:58:32;6.23;;;3.10;;
7971;SDS011;4031;49.758;6.120;2022-10-31T16:04:03;6.33;;;3.30;;
7971;SDS011;4031;49.758;6.120;2022-10-31T16:06:45;7.50;;;3.03;;
7971;SDS011;4031;49.758;6.120;2022-10-31T16:09:37;5.90;;;2.97;;
7971;SDS011;4031;49.758;6.120;2022-10-31T16:12:02;4.90;;;2.77;;
7971;SDS011;4031;49.758;6.120;2022-10-31T16:14:30;5.53;;;3.97;;
7971;SDS011;4031;49.758;6.120;2022-10-31T16:16:58;5.47;;;2.80;;
7971;SDS011;4031;49.758;6.120;2022-10-31T16:19:33;8.00;;;4.10;;
7971;SDS011;4031;49.758;6.120;2022-10-31T16:22:11;5.87;;;3.00;;
7971;SDS011;4031;49.758;6.120;2022-10-31T16:27:31;4.23;;;3.03;;
7971;SDS011;4031;49.758;6.120;2022-10-31T16:30:00;4.13;;;3.20;;
7971;SDS011;4031;49.758;6.120;2022-10-31T16:32:35;6.13;;;3.40;;
7971;SDS011;4031;49.758;6.120;2022-10-31T16:35:23;6.10;;;3.97;;
7971;SDS011;4031;49.758;6.120;2022-10-31T16:37:52;5.80;;;3.83;;
7971;SDS011;4031;49.758;6.120;2022-10-31T16:40:19;6.40;;;5.20;;
7971;SDS011;4031;49.758;6.120;2022-10-31T16:42:45;7.13;;;3.57;;
7971;SDS011;4031;49.758;6.120;2022-10-31T16:45:18;5.13;;;2.93;;
7971;SDS011;4031;49.758;6.120;2022-10-31T16:47:46;5.07;;;4.23;;
7971;SDS011;4031;49.758;6.120;2022-10-31T16:50:14;4.87;;;3.10;;
7971;SDS011;4031;49.758;6.120;2022-10-31T16:52:51;6.40;;;3.50;;
7971;SDS011;4031;49.758;6.120;2022-10-31T16:55:18;8.33;;;3.40;;
7971;SDS011;4031;49.758;6.120;2022-10-31T16:57:54;6.40;;;3.63;;
7971;SDS011;4031;49.758;6.120;2022-10-31T17:00:22;8.77;;;3.50;;
7971;SDS011;4031;49.758;6.120;2022-10-31T17:02:50;4.10;;;3.20;;
7971;SDS011;4031;49.758;6.120;2022-10-31T17:05:18;4.00;;;3.10;;
7971;SDS011;4031;49.758;6.120;2022-10-31T17:07:46;7.07;;;3.03;;
7971;SDS011;4031;49.758;6.120;2022-10-31T17:10:13;5.33;;;3.30;;
7971;SDS011;4031;49.758;6.120;2022-10-31T17:12:42;7.90;;;3.53;;
7971;SDS011;4031;49.758;6.120;2022-10-31T17:15:15;5.33;;;3.60;;
7971;SDS011;4031;49.758;6.120;2022-10-31T17:17:47;3.53;;;3.03;;
7971;SDS011;4031;49.758;6.120;2022-10-31T17:20:26;3.90;;;3.50;;
7971;SDS011;4031;49.758;6.120;2022-10-31T17:25:31;4.30;;;3.80;;
7971;SDS011;4031;49.758;6.120;2022-10-31T17:27:57;4.47;;;2.90;;
7971;SDS011;4031;49.758;6.120;2022-10-31T17:30:23;8.63;;;4.10;;
7971;SDS011;4031;49.758;6.120;2022-10-31T17:32:50;4.90;;;3.83;;
7971;SDS011;4031;49.758;6.120;2022-10-31T17:35:16;5.00;;;3.57;;
7971;SDS011;4031;49.758;6.120;2022-10-31T17:37:43;7.20;;;4.00;;
7971;SDS011;4031;49.758;6.120;2022-10-31T17:40:11;5.47;;;3.17;;
7971;SDS011;4031;49.758;6.120;2022-10-31T17:42:40;6.87;;;3.77;;
7971;SDS011;4031;49.758;6.120;2022-10-31T17:45:07;7.90;;;3.70;;
7971;SDS011;4031;49.758;6.120;2022-10-31T17:47:34;5.83;;;4.60;;
7971;SDS011;4031;49.758;6.120;2022-10-31T17:50:00;9.40;;;3.90;;